sensor_id;sensor_type;location;lat;lon;timestamp;pressure;altitude;pressure_sealevel;temperature;humidity
64368;BME280;50692;53.314;-6.300;2023-02-13T00:02:24;102768.59;;;8.38;74.03
64368;BME280;50692;53.314;-6.300;2023-02-13T00:05:10;102761.59;;;8.38;73.94
64368;BME280;50692;53.314;-6.300;2023-02-13T00:07:56;102753.72;;;8.31;74.16
64368;BME280;50692;53.314;-6.300;2023-02-13T00:10:42;102760.75;;;8.32;74.40
64368;BME280;50692;53.314;-6.300;2023-02-13T00:13:27;102770.41;;;8.33;74.62
64368;BME280;50692;53.314;-6.300;2023-02-13T00:16:13;102773.91;;;8.33;74.72
64368;BME280;50692;53.314;-6.300;2023-02-13T00:18:59;102761.56;;;8.37;74.55
64368;BME280;50692;53.314;-6.300;2023-02-13T00:21:45;102765.97;;;8.36;74.52
64368;BME280;50692;53.314;-6.300;2023-02-13T00:24:31;102751.97;;;8.30;74.71
64368;BME280;50692;53.314;-6.300;2023-02-13T00:27:16;102759.81;;;8.36;74.57
64368;BME280;50692;53.314;-6.300;2023-02-13T00:30:03;102760.75;;;8.32;74.44
64368;BME280;50692;53.314;-6.300;2023-02-13T00:32:49;102759.94;;;8.25;75.45
64368;BME280;50692;53.314;-6.300;2023-02-13T00:35:35;102757.31;;;8.24;75.71
64368;BME280;50692;53.314;-6.300;2023-02-13T00:38:21;102760.81;;;8.26;76.04
64368;BME280;50692;53.314;-6.300;2023-02-13T00:41:07;102755.44;;;8.36;75.91
64368;BME280;50692;53.314;-6.300;2023-02-13T00:43:53;102758.97;;;8.38;75.50
64368;BME280;50692;53.314;-6.300;2023-02-13T00:46:39;102757.97;;;8.47;75.31
64368;BME280;50692;53.314;-6.300;2023-02-13T00:49:25;102751.84;;;8.47;75.02
64368;BME280;50692;53.314;-6.300;2023-02-13T00:52:11;102759.69;;;8.53;74.79
64368;BME280;50692;53.314;-6.300;2023-02-13T00:54:57;102739.56;;;8.46;74.72
64368;BME280;50692;53.314;-6.300;2023-02-13T00:57:43;102750.06;;;8.47;74.87
64368;BME280;50692;53.314;-6.300;2023-02-13T01:00:28;102744.00;;;8.42;75.70
64368;BME280;50692;53.314;-6.300;2023-02-13T01:03:15;102755.41;;;8.41;75.94
64368;BME280;50692;53.314;-6.300;2023-02-13T01:06:01;102752.72;;;8.44;76.08
64368;BME280;50692;53.314;-6.300;2023-02-13T01:08:47;102751.81;;;8.50;75.56
64368;BME280;50692;53.314;-6.300;2023-02-13T01:11:33;102747.47;;;8.46;75.74
64368;BME280;50692;53.314;-6.300;2023-02-13T01:14:19;102752.75;;;8.41;75.88
64368;BME280;50692;53.314;-6.300;2023-02-13T01:17:04;102736.06;;;8.42;76.53
64368;BME280;50692;53.314;-6.300;2023-02-13T01:19:50;102755.31;;;8.49;76.19
64368;BME280;50692;53.314;-6.300;2023-02-13T01:22:36;102755.28;;;8.52;75.96
64368;BME280;50692;53.314;-6.300;2023-02-13T01:25:23;102744.72;;;8.52;75.84
64368;BME280;50692;53.314;-6.300;2023-02-13T01:28:09;102734.25;;;8.47;76.24
64368;BME280;50692;53.314;-6.300;2023-02-13T01:30:56;102737.63;;;8.58;75.79
64368;BME280;50692;53.314;-6.300;2023-02-13T01:33:42;102729.75;;;8.57;75.43
64368;BME280;50692;53.314;-6.300;2023-02-13T01:36:27;102735.06;;;8.52;75.66
64368;BME280;50692;53.314;-6.300;2023-02-13T01:39:13;102734.22;;;8.49;75.85
64368;BME280;50692;53.314;-6.300;2023-02-13T01:41:59;102733.44;;;8.42;75.72
64368;BME280;50692;53.314;-6.300;2023-02-13T01:47:41;102732.41;;;8.54;74.59
64368;BME280;50692;53.314;-6.300;2023-02-13T01:53:22;102729.91;;;8.41;74.78
64368;BME280;50692;53.314;-6.300;2023-02-13T01:56:22;102728.13;;;8.44;74.34
64368;BME280;50692;53.314;-6.300;2023-02-13T01:59:14;102726.41;;;8.43;74.05
64368;BME280;50692;53.314;-6.300;2023-02-13T02:02:02;102727.31;;;8.37;74.00
64368;BME280;50692;53.314;-6.300;2023-02-13T02:04:49;102716.81;;;8.31;73.87
64368;BME280;50692;53.314;-6.300;2023-02-13T02:07:37;102716.06;;;8.21;74.17
64368;BME280;50692;53.314;-6.300;2023-02-13T02:10:24;102713.53;;;8.13;74.33
64368;BME280;50692;53.314;-6.300;2023-02-13T02:13:12;102706.59;;;8.05;74.87
64368;BME280;50692;53.314;-6.300;2023-02-13T02:15:58;102711.78;;;8.09;74.69
64368;BME280;50692;53.314;-6.300;2023-02-13T02:18:44;102717.06;;;8.09;74.96
64368;BME280;50692;53.314;-6.300;2023-02-13T02:24:56;102699.66;;;7.96;75.17
64368;BME280;50692;53.314;-6.300;2023-02-13T02:40:13;102706.00;;;7.75;75.63
64368;BME280;50692;53.314;-6.300;2023-02-13T02:43:24;102706.06;;;7.69;75.47
64368;BME280;50692;53.314;-6.300;2023-02-13T02:46:16;102700.00;;;7.61;75.57
64368;BME280;50692;53.314;-6.300;2023-02-13T02:49:14;102686.09;;;7.47;75.63
64368;BME280;50692;53.314;-6.300;2023-02-13T02:52:26;102681.75;;;7.42;75.86
64368;BME280;50692;53.314;-6.300;2023-02-13T02:58:24;102688.78;;;7.37;76.21
64368;BME280;50692;53.314;-6.300;2023-02-13T03:01:33;102684.47;;;7.29;76.19
64368;BME280;50692;53.314;-6.300;2023-02-13T03:04:40;102681.03;;;7.24;76.35
64368;BME280;50692;53.314;-6.300;2023-02-13T03:07:45;102675.81;;;7.17;76.16
64368;BME280;50692;53.314;-6.300;2023-02-13T03:10:34;102686.38;;;7.08;76.75
64368;BME280;50692;53.314;-6.300;2023-02-13T03:13:46;102679.41;;;7.03;77.11
64368;BME280;50692;53.314;-6.300;2023-02-13T03:16:33;102682.00;;;7.10;77.04
64368;BME280;50692;53.314;-6.300;2023-02-13T03:19:54;102681.97;;;7.13;76.60
64368;BME280;50692;53.314;-6.300;2023-02-13T03:23:14;102669.75;;;7.05;77.06
64368;BME280;50692;53.314;-6.300;2023-02-13T03:29:45;102659.25;;;7.02;77.43
64368;BME280;50692;53.314;-6.300;2023-02-13T03:36:28;102666.28;;;7.03;77.60
64368;BME280;50692;53.314;-6.300;2023-02-13T03:42:59;102672.44;;;6.97;77.55
64368;BME280;50692;53.314;-6.300;2023-02-13T03:45:48;102666.34;;;6.87;77.71
64368;BME280;50692;53.314;-6.300;2023-02-13T03:48:38;102667.31;;;6.72;78.24
64368;BME280;50692;53.314;-6.300;2023-02-13T03:51:49;102668.25;;;6.67;78.15
64368;BME280;50692;53.314;-6.300;2023-02-13T03:54:46;102663.81;;;6.72;78.22
64368;BME280;50692;53.314;-6.300;2023-02-13T03:57:57;102662.06;;;6.69;78.01
64368;BME280;50692;53.314;-6.300;2023-02-13T04:01:05;102660.41;;;6.58;78.79
64368;BME280;50692;53.314;-6.300;2023-02-13T04:04:13;102656.00;;;6.58;79.05
64368;BME280;50692;53.314;-6.300;2023-02-13T04:07:09;102649.06;;;6.53;79.27
64368;BME280;50692;53.314;-6.300;2023-02-13T04:10:02;102649.03;;;6.57;79.75
64368;BME280;50692;53.314;-6.300;2023-02-13T04:12:54;102649.91;;;6.53;79.44
64368;BME280;50692;53.314;-6.300;2023-02-13T04:15:43;102651.66;;;6.51;79.46
64368;BME280;50692;53.314;-6.300;2023-02-13T04:18:32;102656.06;;;6.52;78.96
64368;BME280;50692;53.314;-6.300;2023-02-13T04:21:18;102648.19;;;6.49;79.24
64368;BME280;50692;53.314;-6.300;2023-02-13T04:24:05;102631.56;;;6.41;79.34
64368;BME280;50692;53.314;-6.300;2023-02-13T04:26:51;102650.84;;;6.43;79.55
64368;BME280;50692;53.314;-6.300;2023-02-13T04:29:38;102634.22;;;6.42;79.18
64368;BME280;50692;53.314;-6.300;2023-02-13T04:32:24;102634.22;;;6.42;79.40
64368;BME280;50692;53.314;-6.300;2023-02-13T04:35:09;102633.38;;;6.34;79.49
64368;BME280;50692;53.314;-6.300;2023-02-13T04:37:57;102639.50;;;6.36;79.97
64368;BME280;50692;53.314;-6.300;2023-02-13T04:40:43;102618.53;;;6.19;79.93
64368;BME280;50692;53.314;-6.300;2023-02-13T04:43:29;102643.91;;;6.30;80.45
64368;BME280;50692;53.314;-6.300;2023-02-13T04:46:15;102642.22;;;6.16;81.40
64368;BME280;50692;53.314;-6.300;2023-02-13T04:49:01;102640.44;;;6.12;81.67
64368;BME280;50692;53.314;-6.300;2023-02-13T04:51:48;102639.59;;;6.12;81.67
64368;BME280;50692;53.314;-6.300;2023-02-13T04:54:33;102645.69;;;6.18;81.48
64368;BME280;50692;53.314;-6.300;2023-02-13T04:57:19;102650.09;;;6.12;81.69
64368;BME280;50692;53.314;-6.300;2023-02-13T05:00:06;102647.47;;;6.13;81.60
64368;BME280;50692;53.314;-6.300;2023-02-13T05:02:53;102650.03;;;6.22;81.75
64368;BME280;50692;53.314;-6.300;2023-02-13T05:05:39;102652.69;;;6.24;81.23
64368;BME280;50692;53.314;-6.300;2023-02-13T05:08:25;102643.03;;;6.31;83.52
64368;BME280;50692;53.314;-6.300;2023-02-13T05:11:11;102646.47;;;6.43;84.94
64368;BME280;50692;53.314;-6.300;2023-02-13T05:13:56;102661.28;;;6.60;83.65
64368;BME280;50692;53.314;-6.300;2023-02-13T05:16:42;102650.69;;;6.69;83.71
64368;BME280;50692;53.314;-6.300;2023-02-13T05:19:28;102653.25;;;6.80;83.83
64368;BME280;50692;53.314;-6.300;2023-02-13T05:22:14;102654.09;;;6.88;83.69
64368;BME280;50692;53.314;-6.300;2023-02-13T05:25:18;102649.69;;;6.93;83.67
64368;BME280;50692;53.314;-6.300;2023-02-13T05:28:04;102664.56;;;6.95;83.36
64368;BME280;50692;53.314;-6.300;2023-02-13T05:31:11;102647.09;;;6.88;83.64
64368;BME280;50692;53.314;-6.300;2023-02-13T05:33:57;102647.06;;;6.93;83.86
64368;BME280;50692;53.314;-6.300;2023-02-13T05:36:42;102638.28;;;6.91;83.78
64368;BME280;50692;53.314;-6.300;2023-02-13T05:39:28;102623.41;;;6.90;83.81
64368;BME280;50692;53.314;-6.300;2023-02-13T05:42:14;102633.03;;;6.91;83.94
64368;BME280;50692;53.314;-6.300;2023-02-13T05:45:00;102632.16;;;6.90;85.10
64368;BME280;50692;53.314;-6.300;2023-02-13T05:47:45;102620.72;;;6.99;85.27
64368;BME280;50692;53.314;-6.300;2023-02-13T05:50:31;102624.19;;;7.06;85.32
64368;BME280;50692;53.314;-6.300;2023-02-13T05:53:17;102625.84;;;7.14;85.36
64368;BME280;50692;53.314;-6.300;2023-02-13T05:56:04;102620.53;;;7.19;85.51
64368;BME280;50692;53.314;-6.300;2023-02-13T05:58:51;102620.47;;;7.28;84.95
64368;BME280;50692;53.314;-6.300;2023-02-13T06:01:37;102623.94;;;7.32;84.59
64368;BME280;50692;53.314;-6.300;2023-02-13T06:04:23;102618.69;;;7.32;84.87
64368;BME280;50692;53.314;-6.300;2023-02-13T06:07:08;102608.13;;;7.33;84.48
64368;BME280;50692;53.314;-6.300;2023-02-13T06:09:54;102600.25;;;7.35;84.60
64368;BME280;50692;53.314;-6.300;2023-02-13T06:12:42;102602.88;;;7.35;84.55
64368;BME280;50692;53.314;-6.300;2023-02-13T06:15:28;102597.59;;;7.36;84.28
64368;BME280;50692;53.314;-6.300;2023-02-13T06:18:14;102606.34;;;7.38;83.89
64368;BME280;50692;53.314;-6.300;2023-02-13T06:21:01;102599.34;;;7.39;83.83
64368;BME280;50692;53.314;-6.300;2023-02-13T06:23:47;102594.13;;;7.34;84.04
64368;BME280;50692;53.314;-6.300;2023-02-13T06:26:33;102598.47;;;7.34;84.16
64368;BME280;50692;53.314;-6.300;2023-02-13T06:29:19;102606.38;;;7.35;83.83
64368;BME280;50692;53.314;-6.300;2023-02-13T06:32:05;102607.22;;;7.37;83.67
64368;BME280;50692;53.314;-6.300;2023-02-13T06:34:51;102601.13;;;7.34;83.33
64368;BME280;50692;53.314;-6.300;2023-02-13T06:37:36;102600.28;;;7.32;83.08
64368;BME280;50692;53.314;-6.300;2023-02-13T06:40:23;102584.53;;;7.26;83.60
64368;BME280;50692;53.314;-6.300;2023-02-13T06:43:09;102576.69;;;7.21;83.53
64368;BME280;50692;53.314;-6.300;2023-02-13T06:45:55;102591.53;;;7.27;83.02
64368;BME280;50692;53.314;-6.300;2023-02-13T06:48:41;102602.09;;;7.25;82.67
64368;BME280;50692;53.314;-6.300;2023-02-13T06:51:26;102592.47;;;7.21;82.71
64368;BME280;50692;53.314;-6.300;2023-02-13T06:54:12;102602.16;;;7.16;82.50
64368;BME280;50692;53.314;-6.300;2023-02-13T06:56:58;102590.84;;;7.05;82.57
64368;BME280;50692;53.314;-6.300;2023-02-13T06:59:44;102599.69;;;6.96;83.49
64368;BME280;50692;53.314;-6.300;2023-02-13T07:02:31;102591.78;;;6.99;83.55
64368;BME280;50692;53.314;-6.300;2023-02-13T07:05:17;102585.66;;;7.00;83.44
64368;BME280;50692;53.314;-6.300;2023-02-13T07:08:03;102595.25;;;7.01;83.28
64368;BME280;50692;53.314;-6.300;2023-02-13T07:10:49;102591.81;;;6.96;83.28
64368;BME280;50692;53.314;-6.300;2023-02-13T07:13:34;102594.47;;;6.93;83.44
64368;BME280;50692;53.314;-6.300;2023-02-13T07:16:20;102593.63;;;6.88;83.77
64368;BME280;50692;53.314;-6.300;2023-02-13T07:19:06;102598.06;;;6.81;84.21
64368;BME280;50692;53.314;-6.300;2023-02-13T07:21:52;102594.56;;;6.81;84.41
64368;BME280;50692;53.314;-6.300;2023-02-13T07:24:38;102602.41;;;6.84;84.26
64368;BME280;50692;53.314;-6.300;2023-02-13T07:27:23;102608.53;;;6.86;83.79
64368;BME280;50692;53.314;-6.300;2023-02-13T07:30:10;102598.03;;;6.83;83.54
64368;BME280;50692;53.314;-6.300;2023-02-13T07:33:02;102603.31;;;6.81;83.22
64368;BME280;50692;53.314;-6.300;2023-02-13T07:35:50;102601.56;;;6.82;82.76
64368;BME280;50692;53.314;-6.300;2023-02-13T07:38:36;102595.47;;;6.78;82.45
64368;BME280;50692;53.314;-6.300;2023-02-13T07:41:22;102599.84;;;6.73;82.33
64368;BME280;50692;53.314;-6.300;2023-02-13T07:44:11;102596.38;;;6.69;82.52
64368;BME280;50692;53.314;-6.300;2023-02-13T07:46:57;102596.44;;;6.63;82.94
64368;BME280;50692;53.314;-6.300;2023-02-13T07:49:42;102601.75;;;6.56;83.13
64368;BME280;50692;53.314;-6.300;2023-02-13T07:52:29;102599.09;;;6.57;83.37
64368;BME280;50692;53.314;-6.300;2023-02-13T07:55:14;102603.50;;;6.54;83.58
64368;BME280;50692;53.314;-6.300;2023-02-13T07:58:00;102593.91;;;6.46;83.77
64368;BME280;50692;53.314;-6.300;2023-02-13T08:00:46;102600.00;;;6.53;85.12
64368;BME280;50692;53.314;-6.300;2023-02-13T08:03:32;102603.34;;;6.75;85.10
64368;BME280;50692;53.314;-6.300;2023-02-13T08:06:19;102614.59;;;6.97;84.66
64368;BME280;50692;53.314;-6.300;2023-02-13T08:09:05;102610.03;;;7.16;83.97
64368;BME280;50692;53.314;-6.300;2023-02-13T08:12:09;102620.44;;;7.33;81.99
64368;BME280;50692;53.314;-6.300;2023-02-13T08:14:56;102611.50;;;7.49;79.95
64368;BME280;50692;53.314;-6.300;2023-02-13T08:17:43;102607.88;;;7.61;79.01
64368;BME280;50692;53.314;-6.300;2023-02-13T08:20:29;102615.59;;;7.76;77.82
64368;BME280;50692;53.314;-6.300;2023-02-13T08:23:15;102625.19;;;7.85;78.13
64368;BME280;50692;53.314;-6.300;2023-02-13T08:26:01;102621.63;;;7.87;77.86
64368;BME280;50692;53.314;-6.300;2023-02-13T08:28:47;102618.88;;;7.95;77.71
64368;BME280;50692;53.314;-6.300;2023-02-13T08:31:33;102629.31;;;8.06;77.32
64368;BME280;50692;53.314;-6.300;2023-02-13T08:34:19;102642.38;;;8.15;77.20
64368;BME280;50692;53.314;-6.300;2023-02-13T08:37:05;102630.94;;;8.16;77.08
64368;BME280;50692;53.314;-6.300;2023-02-13T08:39:50;102636.19;;;8.16;77.14
64368;BME280;50692;53.314;-6.300;2023-02-13T08:42:37;102645.00;;;8.15;77.09
64368;BME280;50692;53.314;-6.300;2023-02-13T08:45:23;102630.19;;;8.06;77.25
64368;BME280;50692;53.314;-6.300;2023-02-13T08:48:09;102644.91;;;8.23;76.89
64368;BME280;50692;53.314;-6.300;2023-02-13T08:50:55;102632.50;;;8.31;76.87
64368;BME280;50692;53.314;-6.300;2023-02-13T08:53:41;102633.22;;;8.47;76.38
64368;BME280;50692;53.314;-6.300;2023-02-13T08:56:27;102640.94;;;8.59;75.99
64368;BME280;50692;53.314;-6.300;2023-02-13T08:59:13;102634.59;;;8.74;75.65
64368;BME280;50692;53.314;-6.300;2023-02-13T09:01:59;102633.31;;;9.01;74.78
64368;BME280;50692;53.314;-6.300;2023-02-13T09:04:45;102637.19;;;9.31;73.75
64368;BME280;50692;53.314;-6.300;2023-02-13T09:07:30;102632.63;;;9.42;72.34
64368;BME280;50692;53.314;-6.300;2023-02-13T09:10:17;102630.63;;;9.55;71.30
64368;BME280;50692;53.314;-6.300;2023-02-13T09:13:03;102632.59;;;9.44;70.62
64368;BME280;50692;53.314;-6.300;2023-02-13T09:15:49;102639.06;;;9.26;71.05
64368;BME280;50692;53.314;-6.300;2023-02-13T09:18:34;102624.13;;;9.25;71.16
64368;BME280;50692;53.314;-6.300;2023-02-13T09:21:21;102620.69;;;9.20;70.82
64368;BME280;50692;53.314;-6.300;2023-02-13T09:24:09;102616.41;;;9.12;70.88
64368;BME280;50692;53.314;-6.300;2023-02-13T09:26:55;102615.41;;;9.20;70.71
64368;BME280;50692;53.314;-6.300;2023-02-13T09:29:41;102625.81;;;9.29;70.43
64368;BME280;50692;53.314;-6.300;2023-02-13T09:32:27;102630.75;;;9.47;70.53
64368;BME280;50692;53.314;-6.300;2023-02-13T09:35:13;102617.94;;;9.74;70.27
64368;BME280;50692;53.314;-6.300;2023-02-13T09:37:59;102629.72;;;10.02;68.83
64368;BME280;50692;53.314;-6.300;2023-02-13T09:40:55;102617.88;;;10.22;67.09
64368;BME280;50692;53.314;-6.300;2023-02-13T09:46:37;102605.28;;;9.91;66.89
64368;BME280;50692;53.314;-6.300;2023-02-13T09:49:27;102612.09;;;10.03;67.62
64368;BME280;50692;53.314;-6.300;2023-02-13T09:52:15;102599.47;;;10.17;67.49
64368;BME280;50692;53.314;-6.300;2023-02-13T09:55:01;102605.09;;;10.44;66.86
64368;BME280;50692;53.314;-6.300;2023-02-13T09:58:10;102603.44;;;10.77;65.66
64368;BME280;50692;53.314;-6.300;2023-02-13T10:01:02;102613.75;;;11.23;64.58
64368;BME280;50692;53.314;-6.300;2023-02-13T10:04:20;102619.78;;;11.30;61.74
64368;BME280;50692;53.314;-6.300;2023-02-13T10:16:21;102630.66;;;10.43;63.73
64368;BME280;50692;53.314;-6.300;2023-02-13T10:22:34;102618.91;;;10.15;65.37
64368;BME280;50692;53.314;-6.300;2023-02-13T10:25:24;102615.69;;;9.99;67.20
64368;BME280;50692;53.314;-6.300;2023-02-13T10:28:16;102623.06;;;9.83;68.63
64368;BME280;50692;53.314;-6.300;2023-02-13T10:31:13;102617.81;;;9.81;69.05
64368;BME280;50692;53.314;-6.300;2023-02-13T10:34:02;102618.63;;;9.83;69.23
64368;BME280;50692;53.314;-6.300;2023-02-13T10:36:50;102622.31;;;9.76;69.71
64368;BME280;50692;53.314;-6.300;2023-02-13T10:39:36;102619.75;;;9.72;69.92
64368;BME280;50692;53.314;-6.300;2023-02-13T10:42:40;102615.25;;;9.77;69.98
64368;BME280;50692;53.314;-6.300;2023-02-13T10:51:58;102622.41;;;9.72;69.82
64368;BME280;50692;53.314;-6.300;2023-02-13T10:55:29;102618.91;;;9.70;69.66
64368;BME280;50692;53.314;-6.300;2023-02-13T11:03:45;102560.50;;;9.40;70.62
64368;BME280;50692;53.314;-6.300;2023-02-13T11:06:38;102609.09;;;9.76;70.04
64368;BME280;50692;53.314;-6.300;2023-02-13T11:09:27;102604.69;;;9.77;69.70
64368;BME280;50692;53.314;-6.300;2023-02-13T11:15:31;102614.38;;;10.62;68.00
64368;BME280;50692;53.314;-6.300;2023-02-13T11:18:20;102608.53;;;11.20;66.63
64368;BME280;50692;53.314;-6.300;2023-02-13T11:21:15;102607.78;;;12.15;64.31
64368;BME280;50692;53.314;-6.300;2023-02-13T11:24:04;102595.56;;;13.20;61.93
64368;BME280;50692;53.314;-6.300;2023-02-13T11:26:53;102594.84;;;13.91;56.58
64368;BME280;50692;53.314;-6.300;2023-02-13T11:29:54;102587.03;;;14.34;55.07
64368;BME280;50692;53.314;-6.300;2023-02-13T11:32:41;102586.59;;;14.90;52.43
64368;BME280;50692;53.314;-6.300;2023-02-13T11:35:40;102568.50;;;15.19;51.74
64368;BME280;50692;53.314;-6.300;2023-02-13T11:38:26;102579.50;;;15.52;50.21
64368;BME280;50692;53.314;-6.300;2023-02-13T11:41:14;102567.94;;;15.72;49.26
64368;BME280;50692;53.314;-6.300;2023-02-13T11:44:03;102566.56;;;16.02;48.28
64368;BME280;50692;53.314;-6.300;2023-02-13T11:46:52;102570.16;;;16.20;47.57
64368;BME280;50692;53.314;-6.300;2023-02-13T11:49:44;102562.47;;;16.69;47.29
64368;BME280;50692;53.314;-6.300;2023-02-13T11:52:33;102556.16;;;16.89;45.89
64368;BME280;50692;53.314;-6.300;2023-02-13T11:58:23;102551.06;;;17.02;44.19
64368;BME280;50692;53.314;-6.300;2023-02-13T12:07:19;102527.94;;;16.47;44.64
64368;BME280;50692;53.314;-6.300;2023-02-13T12:10:20;102515.72;;;16.61;44.46
64368;BME280;50692;53.314;-6.300;2023-02-13T12:16:01;102494.63;;;17.08;43.78
64368;BME280;50692;53.314;-6.300;2023-02-13T12:18:55;102508.84;;;17.59;43.16
64368;BME280;50692;53.314;-6.300;2023-02-13T12:27:44;102513.56;;;18.97;38.54
64368;BME280;50692;53.314;-6.300;2023-02-13T12:37:04;102511.44;;;19.60;37.79
64368;BME280;50692;53.314;-6.300;2023-02-13T12:43:21;102489.13;;;20.70;37.49
64368;BME280;50692;53.314;-6.300;2023-02-13T13:07:32;102467.25;;;21.01;34.40
64368;BME280;50692;53.314;-6.300;2023-02-13T13:26:18;102449.69;;;23.04;31.04
64368;BME280;50692;53.314;-6.300;2023-02-13T13:29:11;102437.81;;;23.40;30.34
64368;BME280;50692;53.314;-6.300;2023-02-13T13:32:05;102429.72;;;23.29;29.77
64368;BME280;50692;53.314;-6.300;2023-02-13T13:34:52;102428.50;;;23.33;29.79
64368;BME280;50692;53.314;-6.300;2023-02-13T13:37:50;102423.44;;;23.73;28.86
64368;BME280;50692;53.314;-6.300;2023-02-13T13:43:41;102425.88;;;23.65;29.75
64368;BME280;50692;53.314;-6.300;2023-02-13T13:49:34;102411.31;;;24.11;29.52
64368;BME280;50692;53.314;-6.300;2023-02-13T13:52:26;102414.72;;;24.13;29.04
64368;BME280;50692;53.314;-6.300;2023-02-13T13:58:47;102418.06;;;24.05;28.88
64368;BME280;50692;53.314;-6.300;2023-02-13T14:01:35;102400.53;;;24.00;28.71
64368;BME280;50692;53.314;-6.300;2023-02-13T14:07:22;102414.72;;;23.69;28.88
64368;BME280;50692;53.314;-6.300;2023-02-13T14:13:34;102401.03;;;23.39;29.89
64368;BME280;50692;53.314;-6.300;2023-02-13T14:16:59;102380.03;;;23.54;30.38
64368;BME280;50692;53.314;-6.300;2023-02-13T14:19:50;102395.00;;;23.13;30.10
64368;BME280;50692;53.314;-6.300;2023-02-13T14:22:37;102385.56;;;23.18;30.48
64368;BME280;50692;53.314;-6.300;2023-02-13T14:25:26;102392.31;;;23.02;30.44
64368;BME280;50692;53.314;-6.300;2023-02-13T14:28:23;102387.41;;;23.07;30.13
64368;BME280;50692;53.314;-6.300;2023-02-13T14:31:22;102375.63;;;23.30;30.41
64368;BME280;50692;53.314;-6.300;2023-02-13T14:37:15;102365.25;;;24.12;28.61
64368;BME280;50692;53.314;-6.300;2023-02-13T14:46:21;102370.72;;;23.24;28.79
64368;BME280;50692;53.314;-6.300;2023-02-13T14:52:24;102364.53;;;22.77;30.13
64368;BME280;50692;53.314;-6.300;2023-02-13T14:55:15;102368.81;;;22.57;29.78
64368;BME280;50692;53.314;-6.300;2023-02-13T14:58:21;102359.50;;;22.50;29.46
64368;BME280;50692;53.314;-6.300;2023-02-13T15:01:27;102360.03;;;22.31;29.88
64368;BME280;50692;53.314;-6.300;2023-02-13T15:04:30;102353.13;;;22.16;29.85
64368;BME280;50692;53.314;-6.300;2023-02-13T15:07:20;102367.94;;;21.24;30.80
64368;BME280;50692;53.314;-6.300;2023-02-13T15:13:04;102352.66;;;20.09;33.25
64368;BME280;50692;53.314;-6.300;2023-02-13T15:15:53;102352.84;;;20.59;33.51
64368;BME280;50692;53.314;-6.300;2023-02-13T15:18:44;102344.13;;;21.06;33.08
64368;BME280;50692;53.314;-6.300;2023-02-13T15:21:31;102346.22;;;21.27;32.59
64368;BME280;50692;53.314;-6.300;2023-02-13T15:24:19;102347.78;;;20.80;32.90
64368;BME280;50692;53.314;-6.300;2023-02-13T15:27:16;102345.66;;;20.07;33.35
64368;BME280;50692;53.314;-6.300;2023-02-13T15:32:56;102351.16;;;20.71;33.22
64368;BME280;50692;53.314;-6.300;2023-02-13T15:35:42;102349.84;;;20.64;33.68
64368;BME280;50692;53.314;-6.300;2023-02-13T15:38:29;102359.16;;;20.05;34.63
64368;BME280;50692;53.314;-6.300;2023-02-13T15:41:23;102347.63;;;19.63;35.16
64368;BME280;50692;53.314;-6.300;2023-02-13T15:44:22;102345.63;;;19.67;35.57
64368;BME280;50692;53.314;-6.300;2023-02-13T15:47:16;102349.97;;;20.09;34.76
64368;BME280;50692;53.314;-6.300;2023-02-13T15:50:02;102343.78;;;20.47;34.24
64368;BME280;50692;53.314;-6.300;2023-02-13T15:52:49;102346.06;;;20.66;33.88
64368;BME280;50692;53.314;-6.300;2023-02-13T15:55:36;102343.50;;;21.03;33.28
64368;BME280;50692;53.314;-6.300;2023-02-13T15:58:26;102339.28;;;21.12;32.88
64368;BME280;50692;53.314;-6.300;2023-02-13T16:01:16;102342.91;;;21.36;32.56
64368;BME280;50692;53.314;-6.300;2023-02-13T16:04:05;102297.44;;;21.07;32.06
64368;BME280;50692;53.314;-6.300;2023-02-13T16:06:54;102333.84;;;20.75;32.33
64368;BME280;50692;53.314;-6.300;2023-02-13T16:09:40;102337.97;;;20.28;33.20
64368;BME280;50692;53.314;-6.300;2023-02-13T16:12:27;102333.94;;;19.54;34.46
64368;BME280;50692;53.314;-6.300;2023-02-13T16:15:15;102338.13;;;18.74;36.02
64368;BME280;50692;53.314;-6.300;2023-02-13T16:18:03;102339.94;;;17.51;38.48
64368;BME280;50692;53.314;-6.300;2023-02-13T16:20:55;102326.09;;;16.62;40.25
64368;BME280;50692;53.314;-6.300;2023-02-13T16:23:43;102340.44;;;16.07;41.87
64368;BME280;50692;53.314;-6.300;2023-02-13T16:26:30;102336.56;;;15.59;43.15
64368;BME280;50692;53.314;-6.300;2023-02-13T16:29:21;102340.75;;;15.65;43.12
64368;BME280;50692;53.314;-6.300;2023-02-13T16:32:15;102340.94;;;15.79;42.61
64368;BME280;50692;53.314;-6.300;2023-02-13T16:35:40;102334.84;;;15.77;42.37
64368;BME280;50692;53.314;-6.300;2023-02-13T16:38:39;102340.47;;;15.52;42.44
64368;BME280;50692;53.314;-6.300;2023-02-13T16:44:25;102347.31;;;15.39;42.88
64368;BME280;50692;53.314;-6.300;2023-02-13T16:47:37;102355.94;;;14.87;44.90
64368;BME280;50692;53.314;-6.300;2023-02-13T16:50:23;102353.88;;;14.53;45.42
64368;BME280;50692;53.314;-6.300;2023-02-13T16:53:09;102348.66;;;14.30;46.21
64368;BME280;50692;53.314;-6.300;2023-02-13T16:56:00;102352.22;;;14.08;47.77
64368;BME280;50692;53.314;-6.300;2023-02-13T16:58:47;102349.63;;;14.07;47.65
64368;BME280;50692;53.314;-6.300;2023-02-13T17:01:32;102346.34;;;14.00;48.00
64368;BME280;50692;53.314;-6.300;2023-02-13T17:04:23;102357.81;;;13.80;48.69
64368;BME280;50692;53.314;-6.300;2023-02-13T17:07:14;102339.88;;;13.63;48.79
64368;BME280;50692;53.314;-6.300;2023-02-13T17:15:53;102345.41;;;13.57;49.43
64368;BME280;50692;53.314;-6.300;2023-02-13T17:18:39;102344.75;;;13.52;49.15
64368;BME280;50692;53.314;-6.300;2023-02-13T17:21:25;102328.59;;;13.35;49.38
64368;BME280;50692;53.314;-6.300;2023-02-13T17:24:16;102335.16;;;13.26;49.90
64368;BME280;50692;53.314;-6.300;2023-02-13T17:27:03;102345.03;;;13.21;49.88
64368;BME280;50692;53.314;-6.300;2023-02-13T17:29:49;102354.22;;;13.12;50.23
64368;BME280;50692;53.314;-6.300;2023-02-13T17:32:35;102347.53;;;13.02;50.61
64368;BME280;50692;53.314;-6.300;2023-02-13T17:35:21;102306.13;;;12.73;50.75
64368;BME280;50692;53.314;-6.300;2023-02-13T17:38:08;102355.00;;;12.91;51.17